Time;durP1;ratioP1;P1;durP2;ratioP2;P2;SDS_P1;SDS_P2;PMS_P1;PMS_P2;Temp;Humidity;BMP_temperature;BMP_pressure;BME280_temperature;BME280_humidity;BME280_pressure;Samples;Min_cycle;Max_cycle;Signal;HPM_P1;HPM_P2
2021/06/12 00:00:39;;;;;;;;;;;;;;;22.46;55.05;101851.25;2203550;39;115095;-53
2021/06/12 00:02:11;;;;;;;;;;;;;;;22.49;54.94;101855.41;2193532;39;115530;-53
2021/06/12 00:03:43;;;;;;;;;;;;;;;22.52;54.52;101852.88;2192765;39;115908;-52
2021/06/12 00:05:16;;;;;;;;;;;;;;;22.58;54.42;101859.25;2198323;39;115971;-53
2021/06/12 00:06:47;;;;;;;;;;;;;;;22.58;54.26;101865.72;2197742;39;115954;-53
2021/06/12 00:08:19;;;;;;;;;;;;;;;22.60;54.18;101857.84;2201607;39;115774;-53
2021/06/12 00:09:51;;;;;;;;;;;;;;;22.54;54.39;101856.22;2199439;39;115526;-54
2021/06/12 00:11:22;;;;;;;;;;;;;;;22.53;54.25;101859.34;2189709;39;114629;-53
2021/06/12 00:12:54;;;;;;;;;;;;;;;22.52;54.30;101861.31;2200804;39;116162;-53
2021/06/12 00:14:26;;;;;;;;;;;;;;;22.55;54.29;101865.50;2191669;39;115740;-53
2021/06/12 00:15:58;;;;;;;;;;;;;;;22.58;54.17;101868.56;2190559;39;115881;-55
2021/06/12 00:17:29;;;;;;;;;;;;;;;22.61;54.17;101870.78;2201203;39;115446;-53
2021/06/12 00:19:01;;;;;;;;;;;;;;;22.57;54.38;101866.91;2201302;39;116012;-53
2021/06/12 00:20:37;;;;;;;;;;;;;;;22.57;54.07;101866.06;2192223;39;115928;-53
2021/06/12 00:22:09;;;;;;;;;;;;;;;22.58;54.48;101864.88;2194682;39;115929;-53
2021/06/12 00:23:40;;;;;;;;;;;;;;;22.57;54.47;101866.91;2196557;39;113791;-53
2021/06/12 00:25:13;;;;;;;;;;;;;;;22.59;54.62;101864.59;2197272;39;113777;-53
2021/06/12 00:26:45;;;;;;;;;;;;;;;22.60;54.78;101863.47;2194694;39;113756;-57
2021/06/12 00:28:17;;;;;;;;;;;;;;;22.65;55.00;101868.19;2191404;39;114752;-57
2021/06/12 00:29:49;;;;;;;;;;;;;;;22.69;55.30;101871.25;2201382;39;113981;-55
2021/06/12 00:31:20;;;;;;;;;;;;;;;22.73;55.40;101873.19;2197689;39;114291;-57
2021/06/12 00:32:53;;;;;;;;;;;;;;;22.78;55.57;101873.13;2202652;39;113720;-57
2021/06/12 00:34:25;;;;;;;;;;;;;;;22.84;55.70;101874.75;2198747;39;114207;-55
2021/06/12 00:35:56;;;;;;;;;;;;;;;22.82;55.63;101871.38;2194846;39;113805;-56
2021/06/12 00:37:28;;;;;;;;;;;;;;;22.85;55.54;101872.78;2203022;39;113940;-55
2021/06/12 00:39:00;;;;;;;;;;;;;;;22.85;55.86;101865.13;2201307;39;113940;-53
2021/06/12 00:40:32;;;;;;;;;;;;;;;22.90;55.47;101876.34;2203121;39;114065;-53
2021/06/12 00:42:04;;;;;;;;;;;;;;;22.94;55.12;101885.06;2197842;39;113757;-53
2021/06/12 00:43:39;;;;;;;;;;;;;;;22.83;55.02;101887.16;2205670;39;114088;-53
2021/06/12 00:45:18;;;;;;;;;;;;;;;22.82;54.94;101879.84;2191340;39;114771;-53
2021/06/12 00:46:49;;;;;;;;;;;;;;;22.88;54.70;101875.00;2201761;39;114224;-53
2021/06/12 00:48:21;;;;;;;;;;;;;;;22.78;54.90;101875.94;2205226;39;113865;-53
2021/06/12 00:49:53;;;;;;;;;;;;;;;22.81;54.44;101878.16;2207349;39;115388;-52
2021/06/12 00:51:25;;;;;;;;;;;;;;;22.77;54.59;101879.91;2205587;39;114482;-53
2021/06/12 00:52:57;;;;;;;;;;;;;;;22.79;54.31;101874.81;2205120;39;114825;-53
2021/06/12 00:54:28;;;;;;;;;;;;;;;22.79;54.17;101877.63;2205013;39;115067;-53
2021/06/12 00:56:00;;;;;;;;;;;;;;;22.76;54.33;101880.22;2198274;39;115036;-53
2021/06/12 00:57:33;;;;;;;;;;;;;;;22.74;53.98;101883.34;2194559;39;114171;-53
2021/06/12 00:59:05;;;;;;;;;;;;;;;22.75;53.77;101887.84;2195691;39;114327;-53
2021/06/12 01:00:52;;;;;;;;;;;;;;;22.75;53.61;101881.34;2198531;39;114824;-53
2021/06/12 01:02:24;;;;;;;;;;;;;;;22.73;53.47;101883.63;2197798;39;114788;-53
2021/06/12 01:03:58;;;;;;;;;;;;;;;22.70;53.02;101885.06;2201282;39;115201;-53
2021/06/12 01:05:30;;;;;;;;;;;;;;;22.66;52.56;101877.50;2201857;39;114918;-53
2021/06/12 01:07:02;;;;;;;;;;;;;;;22.60;52.51;101883.19;2197216;39;114565;-53
2021/06/12 01:08:35;;;;;;;;;;;;;;;22.68;52.38;101887.31;2194613;39;115863;-53
2021/06/12 01:10:08;;;;;;;;;;;;;;;22.67;52.04;101882.00;2197991;39;114784;-52
2021/06/12 01:11:43;;;;;;;;;;;;;;;22.61;51.97;101884.03;2203986;39;115204;-53
2021/06/12 01:13:35;;;;;;;;;;;;;;;22.66;51.58;101888.75;2204280;39;116328;-53
2021/06/12 01:15:10;;;;;;;;;;;;;;;22.58;51.68;101879.81;2192658;39;114515;-54
2021/06/12 01:16:44;;;;;;;;;;;;;;;22.60;51.69;101886.00;2205711;39;117307;-53
2021/06/12 01:18:17;;;;;;;;;;;;;;;22.51;51.84;101881.31;2189729;39;115298;-54
2021/06/12 01:19:49;;;;;;;;;;;;;;;22.50;51.69;101880.47;2193858;39;115447;-53
2021/06/12 01:21:28;;;;;;;;;;;;;;;22.43;51.55;101879.16;2195767;39;116971;-53
2021/06/12 01:23:13;;;;;;;;;;;;;;;22.42;51.76;101886.78;2197523;39;114559;-53
2021/06/12 01:24:48;;;;;;;;;;;;;;;22.41;51.70;101892.69;2197549;39;116120;-53
2021/06/12 01:26:22;;;;;;;;;;;;;;;22.46;51.37;101887.00;2198916;39;116079;-53
2021/06/12 01:28:08;;;;;;;;;;;;;;;22.37;51.54;101888.81;2199317;39;115467;-53
2021/06/12 01:29:49;;;;;;;;;;;;;;;22.41;51.59;101879.47;2206310;39;115876;-53
2021/06/12 01:31:21;;;;;;;;;;;;;;;22.33;51.64;101873.66;2204197;39;114145;-53
2021/06/12 01:32:55;;;;;;;;;;;;;;;22.32;51.77;101858.72;2201340;39;114038;-52
2021/06/12 01:34:28;;;;;;;;;;;;;;;22.35;51.75;101869.38;2201123;39;114141;-53
2021/06/12 01:36:01;;;;;;;;;;;;;;;22.36;51.51;101868.25;2197075;39;113715;-54
2021/06/12 01:37:36;;;;;;;;;;;;;;;22.30;51.47;101877.91;2202925;39;113797;-55
2021/06/12 01:39:08;;;;;;;;;;;;;;;22.26;51.68;101871.16;2207953;39;114299;-52
2021/06/12 01:40:41;;;;;;;;;;;;;;;22.22;51.66;101880.50;2205412;39;113833;-53
2021/06/12 01:42:14;;;;;;;;;;;;;;;22.26;51.68;101867.53;2197940;39;113806;-53
2021/06/12 01:43:47;;;;;;;;;;;;;;;22.22;51.65;101864.47;2193892;39;114418;-54
2021/06/12 01:45:20;;;;;;;;;;;;;;;22.24;51.61;101858.53;2192910;39;113709;-53
2021/06/12 01:46:52;;;;;;;;;;;;;;;22.30;51.27;101855.38;2202362;39;113911;-53
2021/06/12 01:48:25;;;;;;;;;;;;;;;22.31;51.51;101857.03;2197048;39;114137;-53
2021/06/12 01:49:58;;;;;;;;;;;;;;;22.26;51.38;101856.28;2198495;39;114127;-53
2021/06/12 01:51:30;;;;;;;;;;;;;;;22.18;51.77;101860.56;2206682;39;114094;-53
2021/06/12 01:53:02;;;;;;;;;;;;;;;22.15;51.64;101855.53;2199642;39;115279;-53
2021/06/12 01:54:37;;;;;;;;;;;;;;;22.11;51.65;101851.66;2196682;39;114938;-53
2021/06/12 01:56:10;;;;;;;;;;;;;;;22.19;51.56;101853.81;2202919;39;116175;-54
2021/06/12 01:57:43;;;;;;;;;;;;;;;22.18;51.48;101844.50;2203485;39;115802;-53
2021/06/12 01:59:15;;;;;;;;;;;;;;;22.20;51.32;101852.69;2196024;39;115174;-53
2021/06/12 02:00:47;;;;;;;;;;;;;;;22.24;51.26;101845.31;2200529;39;115057;-52
2021/06/12 02:02:20;;;;;;;;;;;;;;;22.21;51.21;101848.72;2201496;39;114845;-54
2021/06/12 02:03:54;;;;;;;;;;;;;;;22.15;51.51;101862.00;2201263;39;114767;-53
2021/06/12 02:05:26;;;;;;;;;;;;;;;22.14;51.40;101859.47;2198981;39;115201;-53
2021/06/12 02:07:02;;;;;;;;;;;;;;;22.13;51.35;101869.06;2201793;39;113788;-53
2021/06/12 02:08:34;;;;;;;;;;;;;;;22.09;51.42;101866.00;2201805;39;114705;-53
2021/06/12 02:10:06;;;;;;;;;;;;;;;22.05;51.58;101870.56;2200992;39;116144;-54
2021/06/12 02:11:39;;;;;;;;;;;;;;;22.13;51.19;101864.28;2197623;39;114361;-54
2021/06/12 02:13:11;;;;;;;;;;;;;;;22.13;51.33;101863.44;2204494;39;114768;-53
2021/06/12 02:14:43;;;;;;;;;;;;;;;22.10;51.41;101867.69;2197474;39;115523;-52
2021/06/12 02:16:15;;;;;;;;;;;;;;;22.03;51.56;101872.81;2191301;39;115676;-54
2021/06/12 02:17:48;;;;;;;;;;;;;;;22.06;51.46;101879.84;2192379;39;115640;-54
2021/06/12 02:19:20;;;;;;;;;;;;;;;22.10;51.44;101881.75;2197521;39;115772;-53
2021/06/12 02:20:53;;;;;;;;;;;;;;;22.16;51.04;101879.75;2197472;39;116003;-53
2021/06/12 02:22:25;;;;;;;;;;;;;;;22.07;51.21;101890.81;2199523;39;115491;-53
2021/06/12 02:23:57;;;;;;;;;;;;;;;22.04;51.29;101890.53;2202137;39;114659;-53
2021/06/12 02:25:29;;;;;;;;;;;;;;;21.93;51.50;101886.16;2197762;39;115488;-54
2021/06/12 02:27:01;;;;;;;;;;;;;;;22.01;51.42;101886.34;2191897;39;115549;-54
2021/06/12 02:28:34;;;;;;;;;;;;;;;22.00;51.42;101878.19;2191801;39;115116;-53
2021/06/12 02:30:07;;;;;;;;;;;;;;;21.94;51.47;101891.47;2200240;39;116043;-53
2021/06/12 02:31:43;;;;;;;;;;;;;;;21.97;51.49;101888.09;2200392;39;114949;-53
2021/06/12 02:33:16;;;;;;;;;;;;;;;21.91;51.82;101896.81;2201477;39;116460;-53
2021/06/12 02:34:48;;;;;;;;;;;;;;;21.93;51.67;101900.22;2197758;39;115695;-53
2021/06/12 02:36:19;;;;;;;;;;;;;;;21.89;51.48;101904.72;2199822;39;114089;-52
2021/06/12 02:37:52;;;;;;;;;;;;;;;21.87;51.60;101904.16;2200792;39;113689;-55
2021/06/12 02:39:24;;;;;;;;;;;;;;;21.86;51.97;101903.31;2203137;39;113888;-53
2021/06/12 02:40:56;;;;;;;;;;;;;;;21.86;51.74;101903.31;2203648;39;113589;-53
2021/06/12 02:42:28;;;;;;;;;;;;;;;21.86;51.87;101894.03;2202949;39;114061;-53
2021/06/12 02:44:00;;;;;;;;;;;;;;;21.86;51.65;101888.41;2197589;39;113973;-53
2021/06/12 02:45:31;;;;;;;;;;;;;;;21.88;51.57;101881.38;2203709;39;113762;-53
2021/06/12 02:47:07;;;;;;;;;;;;;;;21.82;51.90;101873.25;2198909;39;114041;-53
2021/06/12 02:48:40;;;;;;;;;;;;;;;21.85;51.90;101881.13;2197855;39;114161;-53
2021/06/12 02:50:12;;;;;;;;;;;;;;;21.93;51.63;101874.91;2194979;39;114555;-53
2021/06/12 02:51:47;;;;;;;;;;;;;;;21.94;51.62;101879.41;2192516;39;114259;-54
2021/06/12 02:53:22;;;;;;;;;;;;;;;21.94;51.61;101879.41;2185681;39;113808;-53
2021/06/12 02:54:54;;;;;;;;;;;;;;;21.92;51.50;101878.81;2200903;39;114072;-53
2021/06/12 02:56:27;;;;;;;;;;;;;;;21.88;52.03;101880.53;2204503;39;113823;-54
2021/06/12 02:57:59;;;;;;;;;;;;;;;21.85;52.31;101879.13;2205764;39;113939;-54
2021/06/12 02:59:31;;;;;;;;;;;;;;;21.87;52.05;101876.88;2197837;39;115266;-54
2021/06/12 03:01:03;;;;;;;;;;;;;;;21.88;52.47;101886.16;2189872;39;114245;-52
2021/06/12 03:02:36;;;;;;;;;;;;;;;21.88;52.16;101891.78;2200068;39;114907;-53
2021/06/12 03:04:10;;;;;;;;;;;;;;;21.91;52.47;101894.00;2201716;39;114766;-54
2021/06/12 03:05:46;;;;;;;;;;;;;;;21.91;52.37;101905.25;2204372;39;116110;-54
2021/06/12 03:07:18;;;;;;;;;;;;;;;21.92;52.24;101907.78;2208694;39;114756;-53
2021/06/12 03:08:51;;;;;;;;;;;;;;;21.93;52.09;101911.47;2210774;39;115808;-53
2021/06/12 03:10:24;;;;;;;;;;;;;;;21.96;52.49;101913.69;2205788;39;114535;-53
2021/06/12 03:11:56;;;;;;;;;;;;;;;21.94;52.44;101911.16;2191316;39;115191;-53
2021/06/12 03:13:28;;;;;;;;;;;;;;;21.96;52.43;101911.72;2199772;39;114835;-53
2021/06/12 03:15:01;;;;;;;;;;;;;;;21.96;52.36;101917.34;2196679;39;115190;-54
2021/06/12 03:16:33;;;;;;;;;;;;;;;21.97;52.56;101916.22;2204815;39;114787;-53
2021/06/12 03:18:05;;;;;;;;;;;;;;;21.99;52.47;101921.53;2201453;39;114746;-53
2021/06/12 03:19:37;;;;;;;;;;;;;;;22.00;52.84;101926.03;2205777;39;115069;-54
2021/06/12 03:21:09;;;;;;;;;;;;;;;22.01;52.50;101927.72;2197031;39;115665;-53
2021/06/12 03:22:42;;;;;;;;;;;;;;;22.03;52.80;101922.66;2202734;39;115872;-54
2021/06/12 03:24:14;;;;;;;;;;;;;;;22.02;52.65;101924.63;2199987;39;114936;-53
2021/06/12 03:25:46;;;;;;;;;;;;;;;22.02;52.71;101929.41;2195555;39;116207;-53
2021/06/12 03:27:17;;;;;;;;;;;;;;;22.00;52.67;101937.28;2190737;39;116203;-54
2021/06/12 03:28:50;;;;;;;;;;;;;;;22.03;52.71;101942.34;2201098;39;115792;-54
2021/06/12 03:30:22;;;;;;;;;;;;;;;22.03;52.54;101934.72;2204070;39;115524;-53
2021/06/12 03:31:54;;;;;;;;;;;;;;;22.04;52.70;101930.78;2206297;39;114612;-53
2021/06/12 03:33:25;;;;;;;;;;;;;;;22.05;52.55;101926.84;2204939;39;115632;-57
2021/06/12 03:34:58;;;;;;;;;;;;;;;22.05;52.28;101921.22;2203208;39;115609;-53
2021/06/12 03:36:30;;;;;;;;;;;;;;;22.06;52.44;101925.72;2196853;39;115748;-53
2021/06/12 03:38:01;;;;;;;;;;;;;;;22.07;52.34;101929.38;2197443;39;115754;-53
2021/06/12 03:39:33;;;;;;;;;;;;;;;22.10;52.50;101920.31;2205978;39;115672;-53
2021/06/12 03:41:06;;;;;;;;;;;;;;;22.09;52.31;101922.28;2203709;39;115847;-58
2021/06/12 03:42:38;;;;;;;;;;;;;;;22.09;52.41;101929.91;2197453;39;114146;-53
2021/06/12 03:44:11;;;;;;;;;;;;;;;22.10;52.37;101923.97;2201285;39;113712;-53
2021/06/12 03:45:43;;;;;;;;;;;;;;;22.10;52.34;101935.25;2204577;39;113921;-53
2021/06/12 03:47:15;;;;;;;;;;;;;;;22.11;52.47;101924.81;2204558;39;114000;-53
2021/06/12 03:48:48;;;;;;;;;;;;;;;22.10;52.37;101937.22;2200199;39;113826;-54
2021/06/12 03:50:20;;;;;;;;;;;;;;;22.10;52.49;101931.59;2202929;39;114314;-53
2021/06/12 03:51:52;;;;;;;;;;;;;;;22.12;52.61;101932.16;2193428;39;114063;-54
2021/06/12 03:53:30;;;;;;;;;;;;;;;22.11;52.67;101931.31;2192826;39;114306;-53
2021/06/12 03:55:03;;;;;;;;;;;;;;;22.10;52.52;101923.97;2194731;39;114089;-53
2021/06/12 03:56:37;;;;;;;;;;;;;;;22.10;52.52;101921.16;2188201;39;115617;-53
2021/06/12 03:58:08;;;;;;;;;;;;;;;22.11;52.48;101922.84;2207141;39;114232;-53
2021/06/12 03:59:43;;;;;;;;;;;;;;;22.13;52.17;101923.38;2201492;39;114308;-53
2021/06/12 04:01:15;;;;;;;;;;;;;;;22.12;52.66;101926.50;2199898;39;113923;-53
2021/06/12 04:02:47;;;;;;;;;;;;;;;22.11;52.47;101922.84;2208041;39;114258;-54
2021/06/12 04:04:20;;;;;;;;;;;;;;;22.12;52.43;101924.50;2202452;39;114329;-53
2021/06/12 04:05:52;;;;;;;;;;;;;;;22.14;52.56;101922.25;2202176;39;114979;-53
2021/06/12 04:07:24;;;;;;;;;;;;;;;22.14;52.45;101921.41;2198085;39;115966;-54
2021/06/12 04:08:56;;;;;;;;;;;;;;;22.15;52.22;101923.09;2202902;39;114120;-54
2021/06/12 04:10:28;;;;;;;;;;;;;;;22.13;52.35;101934.63;2204722;39;115369;-53
2021/06/12 04:11:59;;;;;;;;;;;;;;;22.13;52.53;101934.63;2205604;39;114987;-54
2021/06/12 04:13:31;;;;;;;;;;;;;;;22.14;52.46;101932.66;2204438;39;114387;-53
2021/06/12 04:15:04;;;;;;;;;;;;;;;22.15;52.34;101928.72;2203113;39;115200;-53
2021/06/12 04:16:37;;;;;;;;;;;;;;;22.12;52.51;101921.69;2205012;39;115027;-53
2021/06/12 04:18:09;;;;;;;;;;;;;;;22.11;52.55;101925.66;2205374;39;114530;-53
2021/06/12 04:19:41;;;;;;;;;;;;;;;22.14;52.41;101922.25;2199410;39;115464;-54
2021/06/12 04:21:13;;;;;;;;;;;;;;;22.13;52.61;101929.00;2195948;39;114796;-54
2021/06/12 04:22:44;;;;;;;;;;;;;;;22.15;52.58;101915.50;2194614;39;114312;-54
2021/06/12 04:24:16;;;;;;;;;;;;;;;22.15;52.51;101917.47;2200298;39;114842;-53
2021/06/12 04:25:48;;;;;;;;;;;;;;;22.16;52.49;101924.78;2198336;39;115517;-54
2021/06/12 04:27:20;;;;;;;;;;;;;;;22.14;52.65;101922.25;2202585;39;115816;-53
2021/06/12 04:28:51;;;;;;;;;;;;;;;22.14;52.56;101929.84;2196319;39;114838;-53
2021/06/12 04:30:23;;;;;;;;;;;;;;;22.15;52.57;101932.38;2198640;39;114769;-53
2021/06/12 04:32:03;;;;;;;;;;;;;;;22.14;52.46;101921.41;2204546;39;115611;-54
2021/06/12 04:33:36;;;;;;;;;;;;;;;22.14;52.64;101921.41;2203441;39;115741;-54
2021/06/12 04:35:08;;;;;;;;;;;;;;;22.14;52.52;101924.22;2205163;39;115462;-53
2021/06/12 04:36:39;;;;;;;;;;;;;;;22.17;52.55;101926.44;2204817;39;115483;-53
2021/06/12 04:38:11;;;;;;;;;;;;;;;22.13;52.71;101936.59;2205829;39;115404;-53
2021/06/12 04:39:43;;;;;;;;;;;;;;;22.14;52.47;101935.47;2205099;39;115496;-53
2021/06/12 04:41:14;;;;;;;;;;;;;;;22.15;52.58;101935.19;2204527;39;114958;-54
2021/06/12 04:42:46;;;;;;;;;;;;;;;22.15;52.34;101932.38;2204308;39;115520;-54
2021/06/12 04:44:18;;;;;;;;;;;;;;;22.15;52.54;101929.56;2189808;39;115645;-54
2021/06/12 04:45:49;;;;;;;;;;;;;;;22.17;52.25;101926.44;2200797;39;115776;-53
2021/06/12 04:47:21;;;;;;;;;;;;;;;22.15;52.64;101925.91;2206493;39;114657;-53
2021/06/12 04:48:52;;;;;;;;;;;;;;;22.15;52.58;101934.34;2203630;39;113655;-53
2021/06/12 04:50:24;;;;;;;;;;;;;;;22.16;52.44;101934.06;2202420;39;113860;-55
2021/06/12 04:51:56;;;;;;;;;;;;;;;22.16;52.74;101939.69;2204533;39;114311;-53
2021/06/12 04:53:30;;;;;;;;;;;;;;;22.17;52.57;101934.88;2199333;39;113793;-53
2021/06/12 04:55:02;;;;;;;;;;;;;;;22.19;52.76;101941.06;2202744;39;114257;-53
2021/06/12 04:56:34;;;;;;;;;;;;;;;22.17;52.46;101941.34;2205092;39;114031;-54
2021/06/12 04:58:06;;;;;;;;;;;;;;;22.17;52.73;101940.50;2198120;39;113891;-53
2021/06/12 04:59:38;;;;;;;;;;;;;;;22.17;52.50;101937.69;2196528;39;113929;-54
2021/06/12 05:01:10;;;;;;;;;;;;;;;22.17;52.51;101932.91;2199304;39;114301;-53
2021/06/12 05:02:41;;;;;;;;;;;;;;;22.18;52.48;101933.75;2190493;39;114023;-53
2021/06/12 05:04:13;;;;;;;;;;;;;;;22.18;52.57;101926.16;2201006;39;113905;-53
2021/06/12 05:05:45;;;;;;;;;;;;;;;22.18;52.57;101934.59;2198163;39;113909;-53
2021/06/12 05:07:17;;;;;;;;;;;;;;;22.20;52.62;101931.50;2202140;39;114279;-56
2021/06/12 05:08:49;;;;;;;;;;;;;;;22.20;52.74;101930.66;2208184;39;114003;-53
2021/06/12 05:10:21;;;;;;;;;;;;;;;22.19;52.40;101929.81;2197593;39;114593;-54
2021/06/12 05:11:52;;;;;;;;;;;;;;;22.16;52.56;101939.69;2203281;39;115174;-53
2021/06/12 05:13:24;;;;;;;;;;;;;;;22.18;52.43;101936.56;2208222;39;114903;-53
2021/06/12 05:14:59;;;;;;;;;;;;;;;22.21;52.55;101949.22;2199205;39;115342;-53
2021/06/12 05:16:33;;;;;;;;;;;;;;;22.19;52.47;101935.44;2208867;39;114774;-54
2021/06/12 05:18:06;;;;;;;;;;;;;;;22.18;52.58;101943.03;2207109;39;114877;-53
2021/06/12 05:19:38;;;;;;;;;;;;;;;22.20;52.70;101945.56;2204412;39;114973;-53
2021/06/12 05:21:10;;;;;;;;;;;;;;;22.15;52.65;101945.63;2193985;39;114773;-53
2021/06/12 05:22:42;;;;;;;;;;;;;;;22.20;52.68;101956.00;2203232;39;114122;-54
2021/06/12 05:24:14;;;;;;;;;;;;;;;22.21;52.53;101949.22;2201537;39;115150;-53
2021/06/12 05:25:46;;;;;;;;;;;;;;;22.21;52.44;101952.03;2201775;39;114761;-54
2021/06/12 05:27:17;;;;;;;;;;;;;;;22.18;52.53;101956.28;2200433;39;114879;-54
2021/06/12 05:28:49;;;;;;;;;;;;;;;22.20;52.33;101959.66;2202182;39;114375;-53
2021/06/12 05:30:21;;;;;;;;;;;;;;;22.21;52.38;101960.50;2201641;39;113933;-53
2021/06/12 05:31:53;;;;;;;;;;;;;;;22.21;52.34;101963.31;2202806;39;115504;-53
2021/06/12 05:33:25;;;;;;;;;;;;;;;22.20;52.48;101965.28;2192225;39;115512;-53
2021/06/12 05:34:58;;;;;;;;;;;;;;;22.21;52.55;101958.53;2188493;39;116463;-53
2021/06/12 05:36:31;;;;;;;;;;;;;;;22.20;52.47;101958.81;2200396;39;114736;-53
2021/06/12 05:38:03;;;;;;;;;;;;;;;22.18;52.39;101964.72;2199504;39;115482;-54
2021/06/12 05:39:34;;;;;;;;;;;;;;;22.19;52.40;101963.59;2202620;39;115521;-53
2021/06/12 05:41:06;;;;;;;;;;;;;;;22.18;52.58;101968.38;2195976;39;116551;-54
2021/06/12 05:42:38;;;;;;;;;;;;;;;22.19;52.46;101974.84;2194847;39;116412;-53
2021/06/12 05:44:10;;;;;;;;;;;;;;;22.20;52.48;101970.91;2195258;39;115801;-53
2021/06/12 05:45:43;;;;;;;;;;;;;;;22.20;52.45;101976.53;2203928;39;117180;-53
2021/06/12 05:47:15;;;;;;;;;;;;;;;22.19;52.54;101972.03;2197825;39;116288;-53
2021/06/12 05:48:47;;;;;;;;;;;;;;;22.19;52.40;101966.41;2201640;39;114557;-54
2021/06/12 05:50:18;;;;;;;;;;;;;;;22.17;52.74;101983.59;2197352;39;115607;-53
2021/06/12 05:51:50;;;;;;;;;;;;;;;22.18;52.47;101982.44;2203920;39;115603;-54
2021/06/12 05:53:22;;;;;;;;;;;;;;;22.20;52.60;101981.31;2204294;39;114014;-53
2021/06/12 05:54:54;;;;;;;;;;;;;;;22.20;52.48;101984.97;2197475;39;113871;-54
2021/06/12 05:56:25;;;;;;;;;;;;;;;22.25;52.50;101987.75;2194497;39;113868;-54
2021/06/12 05:57:57;;;;;;;;;;;;;;;22.21;52.37;101983.00;2207326;39;114200;-53
2021/06/12 05:59:29;;;;;;;;;;;;;;;22.25;52.51;101976.50;2187161;39;113887;-54
2021/06/12 06:01:00;;;;;;;;;;;;;;;22.20;52.51;101982.16;2198559;39;113887;-53
2021/06/12 06:02:33;;;;;;;;;;;;;;;22.21;52.32;101983.84;2208589;39;113934;-53
2021/06/12 06:04:05;;;;;;;;;;;;;;;22.18;52.77;101981.59;2202449;39;113908;-53
2021/06/12 06:05:36;;;;;;;;;;;;;;;22.18;52.25;101982.44;2192458;39;114158;-54
2021/06/12 06:07:08;;;;;;;;;;;;;;;22.21;52.44;101992.31;2202919;39;114965;-56
2021/06/12 06:08:40;;;;;;;;;;;;;;;22.19;52.37;101988.94;2196084;39;113797;-54
2021/06/12 06:10:11;;;;;;;;;;;;;;;22.19;52.46;101991.75;2200596;39;113879;-54
2021/06/12 06:11:43;;;;;;;;;;;;;;;22.20;52.22;101993.44;2200699;39;114114;-53
2021/06/12 06:13:15;;;;;;;;;;;;;;;22.21;52.34;102000.75;2196978;39;113991;-53
2021/06/12 06:14:46;;;;;;;;;;;;;;;22.23;52.50;101998.47;2198216;39;114274;-53
2021/06/12 06:16:18;;;;;;;;;;;;;;;22.26;52.50;101999.88;2198756;39;115088;-53
2021/06/12 06:17:50;;;;;;;;;;;;;;;22.25;52.41;102001.00;2206096;39;114752;-54
2021/06/12 06:19:21;;;;;;;;;;;;;;;22.25;52.64;102001.84;2201313;39;115086;-53
2021/06/12 06:20:53;;;;;;;;;;;;;;;22.25;52.33;102004.66;2205651;39;114737;-53
2021/06/12 06:22:25;;;;;;;;;;;;;;;22.24;52.49;102005.78;2199642;39;114031;-53
2021/06/12 06:23:57;;;;;;;;;;;;;;;22.24;52.16;102010.56;2198458;39;114792;-53
2021/06/12 06:25:28;;;;;;;;;;;;;;;22.26;52.24;102020.38;2204442;39;114751;-53
2021/06/12 06:27:00;;;;;;;;;;;;;;;22.27;52.22;102018.41;2204655;39;113952;-53
2021/06/12 06:28:32;;;;;;;;;;;;;;;22.27;52.32;102021.22;2197262;39;114628;-53
2021/06/12 06:30:04;;;;;;;;;;;;;;;22.27;52.20;102010.81;2200455;39;114873;-53
2021/06/12 06:31:37;;;;;;;;;;;;;;;22.25;52.66;102017.88;2196446;39;114330;-54
2021/06/12 06:33:09;;;;;;;;;;;;;;;22.24;52.25;102011.41;2202228;39;115623;-53
2021/06/12 06:34:41;;;;;;;;;;;;;;;22.24;52.31;102019.84;2199255;39;114895;-54
2021/06/12 06:36:13;;;;;;;;;;;;;;;22.23;52.43;102012.53;2209585;39;115079;-53
2021/06/12 06:37:45;;;;;;;;;;;;;;;22.24;52.58;102014.22;2205000;39;115172;-53
2021/06/12 06:39:16;;;;;;;;;;;;;;;22.24;52.19;102027.47;2204800;39;116162;-54
2021/06/12 06:40:48;;;;;;;;;;;;;;;22.21;52.55;102025.25;2204754;39;116192;-54
2021/06/12 06:42:20;;;;;;;;;;;;;;;22.25;52.19;102030.00;2204859;39;114621;-53
2021/06/12 06:43:51;;;;;;;;;;;;;;;22.27;52.44;102030.53;2204444;39;115017;-54
2021/06/12 06:45:23;;;;;;;;;;;;;;;22.29;52.63;102019.81;2204547;39;115481;-53
2021/06/12 06:46:55;;;;;;;;;;;;;;;22.31;52.86;102019.50;2199195;39;115839;-54
2021/06/12 06:48:27;;;;;;;;;;;;;;;22.35;52.63;102017.81;2199283;39;114541;-54
2021/06/12 06:49:58;;;;;;;;;;;;;;;22.37;52.86;102021.16;2202325;39;115735;-54
2021/06/12 06:51:30;;;;;;;;;;;;;;;22.39;52.87;102028.19;2197095;39;115966;-52
2021/06/12 06:53:02;;;;;;;;;;;;;;;22.41;52.55;102033.50;2191821;39;114519;-53
2021/06/12 06:54:34;;;;;;;;;;;;;;;22.44;52.89;102041.38;2203276;39;115663;-53
2021/06/12 06:56:06;;;;;;;;;;;;;;;22.48;52.60;102039.66;2204615;39;115677;-53
2021/06/12 06:57:38;;;;;;;;;;;;;;;22.53;53.00;102042.44;2207886;39;116039;-53
2021/06/12 06:59:10;;;;;;;;;;;;;;;22.58;52.90;102050.81;2195747;39;113893;-53
2021/06/12 07:00:41;;;;;;;;;;;;;;;22.61;52.87;102037.00;2202470;39;113704;-54
2021/06/12 07:02:13;;;;;;;;;;;;;;;22.67;52.88;102034.94;2205604;39;113856;-53
2021/06/12 07:03:45;;;;;;;;;;;;;;;22.72;52.87;102032.09;2201582;39;114478;-53
2021/06/12 07:05:21;;;;;;;;;;;;;;;22.77;52.79;102028.41;2203225;39;114093;-53
2021/06/12 07:06:53;;;;;;;;;;;;;;;22.82;52.84;102033.97;2197687;39;114007;-53
2021/06/12 07:08:24;;;;;;;;;;;;;;;;;;2189541;39;113869;-53
2021/06/12 07:09:56;;;;;;;;;;;;;;;22.92;52.72;102037.53;2200838;39;127852;-54
2021/06/12 07:11:28;;;;;;;;;;;;;;;22.97;52.48;102045.09;2186407;39;114267;-53
2021/06/12 07:13:01;;;;;;;;;;;;;;;23.01;52.28;102034.91;2201809;39;113747;-53
2021/06/12 07:14:33;;;;;;;;;;;;;;;23.07;52.43;102041.34;2198885;39;114074;-54
2021/06/12 07:16:05;;;;;;;;;;;;;;;23.12;52.27;102038.47;2198610;39;114256;-53
2021/06/12 07:17:40;;;;;;;;;;;;;;;23.15;52.05;102041.53;2194427;39;114163;-53
2021/06/12 07:19:12;;;;;;;;;;;;;;;23.21;51.97;102042.31;2205945;39;114101;-54
2021/06/12 07:20:46;;;;;;;;;;;;;;;23.26;51.69;102039.44;2204577;39;113884;-55
2021/06/12 07:22:18;;;;;;;;;;;;;;;23.32;52.09;102038.22;2204925;39;115153;-53
2021/06/12 07:23:50;;;;;;;;;;;;;;;23.36;52.00;102039.28;2204684;39;113928;-54
2021/06/12 07:25:21;;;;;;;;;;;;;;;23.41;51.64;102042.88;2197072;39;114839;-53
2021/06/12 07:26:53;;;;;;;;;;;;;;;23.45;51.69;102045.97;2196057;39;114207;-54
2021/06/12 07:28:25;;;;;;;;;;;;;;;23.48;51.58;102049.00;2204779;39;115091;-53
2021/06/12 07:29:56;;;;;;;;;;;;;;;23.55;51.55;102047.81;2198731;39;114719;-53
2021/06/12 07:31:29;;;;;;;;;;;;;;;23.60;51.23;102048.59;2207227;39;114873;-53
2021/06/12 07:33:00;;;;;;;;;;;;;;;23.64;51.06;102048.81;2201620;39;115112;-54
2021/06/12 07:34:32;;;;;;;;;;;;;;;23.69;51.12;102043.13;2201947;39;115222;-54
2021/06/12 07:36:04;;;;;;;;;;;;;;;23.74;51.42;102041.06;2198744;39;114060;-53
2021/06/12 07:37:35;;;;;;;;;;;;;;;23.78;51.01;102039.31;2203295;39;115147;-54
2021/06/12 07:39:08;;;;;;;;;;;;;;;23.83;50.97;102033.59;2204132;39;114757;-53
2021/06/12 07:40:40;;;;;;;;;;;;;;;23.88;50.86;102042.00;2200601;39;114841;-53
2021/06/12 07:42:11;;;;;;;;;;;;;;;23.93;50.80;102041.06;2195341;39;118391;-52
2021/06/12 07:43:43;;;;;;;;;;;;;;;23.96;50.45;102046.09;2201096;39;116496;-53
2021/06/12 07:45:15;;;;;;;;;;;;;;;24.00;50.28;102058.47;2197282;39;115679;-52
2021/06/12 07:46:47;;;;;;;;;;;;;;;24.05;50.51;102054.72;2200654;39;115279;-52
2021/06/12 07:48:18;;;;;;;;;;;;;;;24.08;50.07;102054.94;2199731;39;115600;-53
2021/06/12 07:49:50;;;;;;;;;;;;;;;24.10;50.04;102044.19;2199991;39;115612;-54